Time;durP1;ratioP1;P1;durP2;ratioP2;P2;SDS_P1;SDS_P2;PMS_P1;PMS_P2;Temp;Humidity;BMP_temperature;BMP_pressure;BME280_temperature;BME280_humidity;BME280_pressure;Samples;Min_cycle;Max_cycle;Signal;HPM_P1;HPM_P2
2023/11/23 00:01:42;;;;;;;60.40;29.60;;;;;;;;;;5014746;28;20190;-70
2023/11/23 00:04:08;;;;;;;54.20;28.98;;;;;;;;;;5026587;28;20476;-69
2023/11/23 00:06:33;;;;;;;57.58;29.15;;;;;;;;;;5027149;28;20384;-70
2023/11/23 00:08:58;;;;;;;59.30;29.65;;;;;;;;;;5030460;28;20201;-69
2023/11/23 00:11:24;;;;;;;61.03;30.27;;;;;;;;;;5028607;28;20222;-69
2023/11/23 00:13:51;;;;;;;58.63;29.80;;;;;;;;;;5026435;28;20186;-70
2023/11/23 00:16:17;;;;;;;62.67;30.52;;;;;;;;;;5028774;28;20209;-70
2023/11/23 00:18:43;;;;;;;66.55;30.08;;;;;;;;;;5034129;28;20340;-70
2023/11/23 00:21:09;;;;;;;60.17;30.50;;;;;;;;;;5028953;28;20195;-70
2023/11/23 00:23:34;;;;;;;63.33;32.35;;;;;;;;;;5027673;28;20174;-70
2023/11/23 00:26:02;;;;;;;64.10;31.30;;;;;;;;;;5028716;28;20252;-70
2023/11/23 00:28:27;;;;;;;73.82;31.75;;;;;;;;;;5020220;28;20194;-69
2023/11/23 00:30:53;;;;;;;67.15;32.03;;;;;;;;;;5048859;28;20554;-70
2023/11/23 00:33:19;;;;;;;63.80;31.27;;;;;;;;;;5027654;28;20272;-69
2023/11/23 00:35:44;;;;;;;67.60;33.13;;;;;;;;;;5027957;28;20186;-70
2023/11/23 00:38:11;;;;;;;74.88;34.58;;;;;;;;;;5027880;28;20236;-70
2023/11/23 00:40:37;;;;;;;67.57;32.78;;;;;;;;;;5026720;28;20178;-70
2023/11/23 00:43:02;;;;;;;72.97;33.55;;;;;;;;;;5035965;28;20252;-70
2023/11/23 00:45:29;;;;;;;71.33;32.93;;;;;;;;;;5033134;28;20201;-70
2023/11/23 00:47:54;;;;;;;69.72;33.10;;;;;;;;;;5051946;28;20187;-70
2023/11/23 00:50:20;;;;;;;73.75;33.10;;;;;;;;;;5022472;28;20281;-69
2023/11/23 00:52:45;;;;;;;71.50;34.05;;;;;;;;;;5030086;28;20648;-70
2023/11/23 00:55:11;;;;;;;75.07;33.75;;;;;;;;;;5029118;28;20700;-69
2023/11/23 00:57:38;;;;;;;68.63;32.80;;;;;;;;;;5036217;28;20198;-70
2023/11/23 01:00:07;;;;;;;70.57;33.83;;;;;;;;;;5040762;28;20198;-69
2023/11/23 01:02:32;;;;;;;71.10;34.78;;;;;;;;;;5024270;28;20568;-69
2023/11/23 01:04:58;;;;;;;75.63;34.35;;;;;;;;;;5041210;28;20247;-68
2023/11/23 01:07:23;;;;;;;74.28;33.45;;;;;;;;;;5028355;28;20519;-69
2023/11/23 01:09:49;;;;;;;71.38;33.97;;;;;;;;;;5028175;28;20261;-69
2023/11/23 01:12:14;;;;;;;70.18;34.78;;;;;;;;;;5017358;28;20304;-68
2023/11/23 01:14:40;;;;;;;69.85;32.95;;;;;;;;;;5026595;28;20233;-69
2023/11/23 01:17:05;;;;;;;73.30;34.92;;;;;;;;;;5024627;28;20214;-69
2023/11/23 01:19:31;;;;;;;71.32;33.83;;;;;;;;;;5031405;28;20214;-68
2023/11/23 01:21:56;;;;;;;71.85;34.40;;;;;;;;;;5025618;28;20195;-68
2023/11/23 01:24:21;;;;;;;64.18;31.98;;;;;;;;;;5034794;28;20300;-68
2023/11/23 01:26:47;;;;;;;73.60;33.63;;;;;;;;;;5040883;28;20186;-69
2023/11/23 01:29:12;;;;;;;70.72;33.42;;;;;;;;;;5015628;28;20183;-69
2023/11/23 01:31:38;;;;;;;64.13;32.42;;;;;;;;;;5031249;28;20586;-68
2023/11/23 01:34:04;;;;;;;69.25;32.35;;;;;;;;;;5025993;28;20277;-69
2023/11/23 01:36:29;;;;;;;62.65;31.55;;;;;;;;;;5030737;28;20210;-69
2023/11/23 01:38:54;;;;;;;61.90;30.80;;;;;;;;;;5038685;28;20217;-69
2023/11/23 01:41:20;;;;;;;63.17;31.48;;;;;;;;;;5012032;28;20202;-68
2023/11/23 01:43:46;;;;;;;68.43;32.00;;;;;;;;;;5035729;28;20692;-68
2023/11/23 01:46:12;;;;;;;63.13;31.42;;;;;;;;;;5026038;28;20190;-68
2023/11/23 01:48:38;;;;;;;64.05;30.75;;;;;;;;;;5020677;28;20189;-68
2023/11/23 01:51:05;;;;;;;57.90;31.42;;;;;;;;;;5028269;28;20186;-69
2023/11/23 01:53:31;;;;;;;59.88;29.77;;;;;;;;;;5040520;28;20496;-69
2023/11/23 01:56:00;;;;;;;58.22;30.48;;;;;;;;;;5023007;28;20191;-69
2023/11/23 01:58:26;;;;;;;61.70;30.90;;;;;;;;;;5016406;28;20274;-69
2023/11/23 02:00:51;;;;;;;57.70;31.27;;;;;;;;;;5017393;28;20277;-69
2023/11/23 02:03:21;;;;;;;62.33;30.65;;;;;;;;;;5023505;28;20721;-69
2023/11/23 02:05:47;;;;;;;55.53;30.33;;;;;;;;;;5024394;28;20244;-69
2023/11/23 02:08:12;;;;;;;55.95;29.85;;;;;;;;;;5017594;28;20194;-70
2023/11/23 02:10:38;;;;;;;59.03;30.50;;;;;;;;;;5035946;28;20230;-69
2023/11/23 02:13:05;;;;;;;58.80;30.75;;;;;;;;;;5030200;28;20198;-69
2023/11/23 02:15:30;;;;;;;55.83;29.63;;;;;;;;;;5025264;28;20198;-69
2023/11/23 02:18:03;;;;;;;52.75;28.85;;;;;;;;;;5024543;28;20677;-69
2023/11/23 02:20:29;;;;;;;55.28;29.92;;;;;;;;;;5024555;28;20198;-69
2023/11/23 02:22:55;;;;;;;59.60;29.45;;;;;;;;;;5031425;28;20308;-69
2023/11/23 02:25:20;;;;;;;58.10;30.60;;;;;;;;;;5022919;28;20309;-70
2023/11/23 02:27:47;;;;;;;57.30;30.65;;;;;;;;;;5026839;28;20186;-69
2023/11/23 02:30:13;;;;;;;59.03;31.73;;;;;;;;;;5028082;28;20610;-69
2023/11/23 02:32:38;;;;;;;58.53;31.25;;;;;;;;;;5021749;28;20307;-69
2023/11/23 02:35:04;;;;;;;58.22;31.75;;;;;;;;;;5023172;28;20194;-69
2023/11/23 02:37:30;;;;;;;53.80;31.65;;;;;;;;;;5019837;28;20681;-69
2023/11/23 02:39:55;;;;;;;57.28;31.42;;;;;;;;;;5016631;28;20252;-69
2023/11/23 02:42:20;;;;;;;60.85;32.92;;;;;;;;;;5020615;28;20679;-70
2023/11/23 02:44:46;;;;;;;67.05;32.83;;;;;;;;;;5026403;28;20197;-69
2023/11/23 02:47:11;;;;;;;54.88;32.28;;;;;;;;;;5013848;28;20209;-70
2023/11/23 02:49:37;;;;;;;60.30;32.92;;;;;;;;;;5015030;28;20197;-69
2023/11/23 02:52:02;;;;;;;59.35;31.52;;;;;;;;;;5016855;28;20190;-70
2023/11/23 02:54:28;;;;;;;65.53;34.50;;;;;;;;;;5020161;28;20607;-69
2023/11/23 02:56:53;;;;;;;67.38;33.58;;;;;;;;;;5011372;28;20209;-70
2023/11/23 02:59:19;;;;;;;60.92;33.53;;;;;;;;;;5025233;28;20194;-70
2023/11/23 03:01:44;;;;;;;69.60;35.00;;;;;;;;;;5017439;28;20222;-69
2023/11/23 03:04:10;;;;;;;67.78;34.83;;;;;;;;;;5025605;28;20205;-70
2023/11/23 03:06:35;;;;;;;66.32;33.78;;;;;;;;;;5029379;28;20708;-70
2023/11/23 03:09:01;;;;;;;64.53;34.28;;;;;;;;;;5031238;28;20535;-70
2023/11/23 03:11:26;;;;;;;61.00;33.45;;;;;;;;;;5028529;28;20596;-70
2023/11/23 03:13:53;;;;;;;65.88;34.45;;;;;;;;;;5041895;28;20740;-69
2023/11/23 03:16:19;;;;;;;63.08;35.78;;;;;;;;;;5032315;28;20186;-69
2023/11/23 03:18:45;;;;;;;63.78;35.13;;;;;;;;;;5032718;28;20215;-69
2023/11/23 03:21:10;;;;;;;64.60;34.22;;;;;;;;;;5036675;28;20200;-69
2023/11/23 03:23:36;;;;;;;66.78;35.67;;;;;;;;;;5045876;28;20260;-70
2023/11/23 03:26:02;;;;;;;66.50;35.88;;;;;;;;;;5018788;28;20198;-69
2023/11/23 03:28:27;;;;;;;67.38;36.03;;;;;;;;;;5028896;28;20202;-69
2023/11/23 03:30:53;;;;;;;70.32;37.08;;;;;;;;;;5020444;28;20193;-69
2023/11/23 03:33:19;;;;;;;64.80;34.15;;;;;;;;;;5023467;28;20186;-69
2023/11/23 03:35:44;;;;;;;68.20;36.22;;;;;;;;;;5028965;28;20212;-69
2023/11/23 03:38:10;;;;;;;72.07;37.28;;;;;;;;;;5021484;28;20613;-69
2023/11/23 03:40:37;;;;;;;66.53;36.60;;;;;;;;;;5021278;28;20191;-70
2023/11/23 03:43:03;;;;;;;64.75;35.45;;;;;;;;;;5032576;28;20286;-69
2023/11/23 03:45:29;;;;;;;68.40;36.20;;;;;;;;;;5028844;28;20677;-70
2023/11/23 03:47:54;;;;;;;65.55;35.35;;;;;;;;;;5041885;28;20224;-70
2023/11/23 03:50:20;;;;;;;69.40;35.78;;;;;;;;;;5029905;28;20204;-70
2023/11/23 03:52:45;;;;;;;69.53;38.22;;;;;;;;;;5026691;28;21071;-70
2023/11/23 03:55:11;;;;;;;73.65;36.70;;;;;;;;;;5026437;28;20181;-70
2023/11/23 03:57:38;;;;;;;64.13;36.42;;;;;;;;;;5039235;28;20247;-70
2023/11/23 04:00:05;;;;;;;65.47;35.10;;;;;;;;;;5036543;28;20181;-70
2023/11/23 04:02:30;;;;;;;68.75;36.42;;;;;;;;;;5039595;28;20182;-70
2023/11/23 04:04:56;;;;;;;62.38;35.22;;;;;;;;;;5046949;28;20272;-70
2023/11/23 04:07:21;;;;;;;62.40;34.78;;;;;;;;;;5031053;28;20225;-70
2023/11/23 04:09:46;;;;;;;61.38;35.17;;;;;;;;;;5025683;28;20185;-70
2023/11/23 04:12:12;;;;;;;71.47;34.53;;;;;;;;;;5042355;28;20233;-70
2023/11/23 04:14:37;;;;;;;61.75;35.70;;;;;;;;;;5038611;28;20464;-71
2023/11/23 04:17:02;;;;;;;63.20;34.58;;;;;;;;;;5032471;28;20603;-70
2023/11/23 04:19:28;;;;;;;60.28;33.70;;;;;;;;;;5032622;28;20652;-70
2023/11/23 04:21:53;;;;;;;51.63;33.08;;;;;;;;;;5031854;28;20616;-70
2023/11/23 04:24:19;;;;;;;53.53;31.35;;;;;;;;;;5040184;28;20197;-70
2023/11/23 04:26:44;;;;;;;52.05;30.92;;;;;;;;;;5040786;28;20265;-70
2023/11/23 04:29:10;;;;;;;59.88;31.40;;;;;;;;;;5032443;28;20212;-70
2023/11/23 04:31:35;;;;;;;48.60;29.95;;;;;;;;;;5031678;28;20488;-70
2023/11/23 04:34:02;;;;;;;56.20;30.08;;;;;;;;;;5026623;28;20228;-70
2023/11/23 04:36:30;;;;;;;45.05;29.48;;;;;;;;;;5036197;28;20576;-70
2023/11/23 04:38:56;;;;;;;48.15;28.08;;;;;;;;;;5027888;28;20643;-70
2023/11/23 04:41:21;;;;;;;52.70;28.27;;;;;;;;;;5033698;28;20501;-69
2023/11/23 04:43:47;;;;;;;55.83;28.52;;;;;;;;;;5028027;28;20230;-70
2023/11/23 04:46:12;;;;;;;51.28;28.85;;;;;;;;;;5028080;28;20275;-70
2023/11/23 04:48:38;;;;;;;53.17;29.17;;;;;;;;;;5040068;28;20181;-72
2023/11/23 04:51:04;;;;;;;46.03;28.75;;;;;;;;;;5033905;28;20706;-70
2023/11/23 04:53:29;;;;;;;44.00;26.40;;;;;;;;;;5035201;28;20213;-70
2023/11/23 04:55:55;;;;;;;45.53;27.45;;;;;;;;;;5022390;28;20652;-70
2023/11/23 04:58:21;;;;;;;47.35;26.77;;;;;;;;;;5037761;28;20296;-70
2023/11/23 05:00:46;;;;;;;44.50;26.13;;;;;;;;;;5021763;28;20193;-70
2023/11/23 05:03:11;;;;;;;44.75;26.02;;;;;;;;;;5014557;28;20206;-70
2023/11/23 05:05:37;;;;;;;44.22;25.40;;;;;;;;;;5024068;28;20561;-70
2023/11/23 05:08:04;;;;;;;45.38;25.20;;;;;;;;;;5039457;28;20201;-70
2023/11/23 05:10:29;;;;;;;38.30;23.25;;;;;;;;;;5035434;28;20233;-70
2023/11/23 05:12:54;;;;;;;40.08;23.02;;;;;;;;;;5028932;28;20205;-70
2023/11/23 05:15:21;;;;;;;46.33;22.25;;;;;;;;;;5023299;28;20174;-69
2023/11/23 05:17:46;;;;;;;31.75;20.70;;;;;;;;;;5018408;28;20297;-69
2023/11/23 05:20:12;;;;;;;38.05;20.23;;;;;;;;;;5036363;28;20595;-70
2023/11/23 05:22:38;;;;;;;40.53;19.15;;;;;;;;;;5040796;28;20186;-70
2023/11/23 05:25:03;;;;;;;41.42;19.05;;;;;;;;;;5021227;28;20911;-70
2023/11/23 05:27:29;;;;;;;35.83;18.27;;;;;;;;;;5019753;28;20213;-70
2023/11/23 05:29:54;;;;;;;28.27;18.17;;;;;;;;;;5032299;28;20555;-70
2023/11/23 05:32:20;;;;;;;26.92;16.48;;;;;;;;;;5027987;28;20270;-69
2023/11/23 05:34:45;;;;;;;29.83;16.95;;;;;;;;;;5031356;28;20273;-69
2023/11/23 05:37:10;;;;;;;34.53;15.57;;;;;;;;;;5044180;28;20273;-69
2023/11/23 05:39:36;;;;;;;26.55;15.23;;;;;;;;;;5037083;28;20618;-69
2023/11/23 05:42:01;;;;;;;26.05;15.40;;;;;;;;;;5028600;28;20190;-69
2023/11/23 05:44:27;;;;;;;26.48;13.95;;;;;;;;;;5039029;28;20735;-69
2023/11/23 05:46:52;;;;;;;27.42;14.05;;;;;;;;;;5028044;28;20194;-69
2023/11/23 05:49:21;;;;;;;29.65;13.77;;;;;;;;;;5031355;28;20220;-69
2023/11/23 05:51:47;;;;;;;25.52;12.85;;;;;;;;;;5028637;28;20194;-69
2023/11/23 05:54:12;;;;;;;22.23;13.32;;;;;;;;;;5041969;28;20182;-69
2023/11/23 05:56:38;;;;;;;26.33;12.93;;;;;;;;;;5026768;28;20518;-69
2023/11/23 05:59:04;;;;;;;28.83;13.75;;;;;;;;;;5024377;28;20194;-69
2023/11/23 06:01:30;;;;;;;23.95;12.88;;;;;;;;;;5030419;28;20217;-69
2023/11/23 06:03:55;;;;;;;20.52;11.70;;;;;;;;;;5027740;28;20194;-69
2023/11/23 06:06:23;;;;;;;25.20;12.80;;;;;;;;;;5031195;28;20704;-69
2023/11/23 06:08:49;;;;;;;27.38;12.10;;;;;;;;;;5019940;28;20195;-69
2023/11/23 06:11:16;;;;;;;21.98;11.73;;;;;;;;;;5026527;28;20316;-70
2023/11/23 06:13:43;;;;;;;18.15;9.75;;;;;;;;;;5025001;28;20233;-69
2023/11/23 06:16:09;;;;;;;22.80;10.82;;;;;;;;;;5032001;28;20285;-68
2023/11/23 06:18:34;;;;;;;20.73;9.32;;;;;;;;;;5021327;28;20304;-69
2023/11/23 06:20:59;;;;;;;20.67;9.80;;;;;;;;;;5035663;28;20715;-68
2023/11/23 06:23:25;;;;;;;20.20;10.07;;;;;;;;;;5022913;28;20546;-69
2023/11/23 06:25:50;;;;;;;18.58;10.00;;;;;;;;;;5027819;28;20221;-68
2023/11/23 06:28:15;;;;;;;20.83;9.68;;;;;;;;;;5018081;28;20190;-69
2023/11/23 06:30:44;;;;;;;15.63;9.10;;;;;;;;;;5027799;28;20194;-69
2023/11/23 06:33:10;;;;;;;18.55;9.05;;;;;;;;;;5023471;28;20253;-68
2023/11/23 06:35:35;;;;;;;19.27;9.68;;;;;;;;;;5023730;28;20276;-68
2023/11/23 06:38:00;;;;;;;21.67;8.38;;;;;;;;;;5038526;28;20229;-69
2023/11/23 06:40:28;;;;;;;18.70;8.55;;;;;;;;;;5030139;28;20682;-69
2023/11/23 06:42:53;;;;;;;19.85;8.63;;;;;;;;;;5029669;28;20194;-68
2023/11/23 06:45:19;;;;;;;18.50;8.18;;;;;;;;;;5028727;28;20714;-69
2023/11/23 06:47:44;;;;;;;19.80;7.82;;;;;;;;;;5030250;28;20181;-69
2023/11/23 06:50:10;;;;;;;15.10;7.78;;;;;;;;;;5029023;28;20186;-69
2023/11/23 06:52:35;;;;;;;14.93;7.43;;;;;;;;;;5021733;28;20607;-69
2023/11/23 06:55:01;;;;;;;13.85;7.55;;;;;;;;;;5048823;28;20190;-69
2023/11/23 06:57:27;;;;;;;16.55;8.18;;;;;;;;;;5038487;28;20205;-68
2023/11/23 06:59:53;;;;;;;17.85;7.47;;;;;;;;;;5028435;28;20195;-69
2023/11/23 07:02:18;;;;;;;16.20;7.63;;;;;;;;;;5022550;28;20194;-69
2023/11/23 07:04:44;;;;;;;21.05;7.07;;;;;;;;;;5036710;28;20661;-69
2023/11/23 07:07:09;;;;;;;14.90;7.45;;;;;;;;;;5031978;28;20225;-68
2023/11/23 07:09:35;;;;;;;15.07;8.05;;;;;;;;;;5028610;28;20568;-68
2023/11/23 07:12:01;;;;;;;22.65;7.50;;;;;;;;;;5034086;28;20246;-68
2023/11/23 07:14:26;;;;;;;16.95;7.28;;;;;;;;;;5019963;28;20247;-68
2023/11/23 07:16:52;;;;;;;17.70;7.55;;;;;;;;;;5016996;28;20206;-68
2023/11/23 07:19:19;;;;;;;17.17;7.50;;;;;;;;;;5019730;28;20210;-68
2023/11/23 07:21:45;;;;;;;19.65;7.35;;;;;;;;;;5031573;28;20186;-68
2023/11/23 07:24:10;;;;;;;21.35;8.23;;;;;;;;;;5023974;28;20209;-68
2023/11/23 07:26:35;;;;;;;16.45;8.05;;;;;;;;;;5023886;28;20289;-68
2023/11/23 07:29:03;;;;;;;21.88;8.10;;;;;;;;;;5030131;28;20186;-69
2023/11/23 07:31:28;;;;;;;14.95;8.25;;;;;;;;;;5016594;28;20284;-69
2023/11/23 07:33:53;;;;;;;16.98;8.43;;;;;;;;;;5024148;28;20265;-69
2023/11/23 07:36:19;;;;;;;17.90;7.90;;;;;;;;;;5025685;28;20269;-68
2023/11/23 07:38:45;;;;;;;20.98;7.88;;;;;;;;;;5029634;28;20443;-68
2023/11/23 07:41:11;;;;;;;19.35;8.43;;;;;;;;;;5033727;28;20186;-69
2023/11/23 07:43:37;;;;;;;12.77;7.43;;;;;;;;;;5024715;28;20189;-68
2023/11/23 07:46:02;;;;;;;14.52;8.38;;;;;;;;;;5027538;28;20190;-69
2023/11/23 07:48:29;;;;;;;20.60;7.78;;;;;;;;;;5026135;28;20624;-69
2023/11/23 07:50:55;;;;;;;14.63;7.93;;;;;;;;;;5021444;28;20788;-68
2023/11/23 07:53:20;;;;;;;16.75;7.65;;;;;;;;;;5030860;28;20276;-69
2023/11/23 07:55:46;;;;;;;15.27;8.27;;;;;;;;;;5041124;28;20189;-68
2023/11/23 07:58:11;;;;;;;16.88;8.13;;;;;;;;;;5025251;28;20225;-69
2023/11/23 08:00:38;;;;;;;16.55;7.88;;;;;;;;;;5012282;28;20194;-69
2023/11/23 08:03:04;;;;;;;19.83;8.30;;;;;;;;;;5020607;28;20636;-69
2023/11/23 08:05:29;;;;;;;14.70;7.60;;;;;;;;;;5029376;28;20190;-69
2023/11/23 08:07:56;;;;;;;17.92;7.43;;;;;;;;;;5041814;28;20201;-69
2023/11/23 08:10:21;;;;;;;19.15;7.55;;;;;;;;;;5028507;28;20244;-69
2023/11/23 08:12:47;;;;;;;16.60;7.63;;;;;;;;;;5046635;28;20193;-70
2023/11/23 08:15:15;;;;;;;14.32;6.75;;;;;;;;;;5030921;28;20312;-69
2023/11/23 08:17:41;;;;;;;16.42;6.97;;;;;;;;;;5041477;28;20217;-72
2023/11/23 08:20:08;;;;;;;23.48;7.15;;;;;;;;;;5031209;28;20606;-71
2023/11/23 08:22:35;;;;;;;13.93;6.97;;;;;;;;;;5028961;28;20276;-69
2023/11/23 08:25:00;;;;;;;13.90;6.50;;;;;;;;;;5042534;28;20189;-68
2023/11/23 08:27:26;;;;;;;13.50;6.40;;;;;;;;;;5028388;28;20194;-69
2023/11/23 08:29:52;;;;;;;14.82;6.68;;;;;;;;;;5028697;28;20261;-71
2023/11/23 08:32:18;;;;;;;18.80;6.95;;;;;;;;;;5021086;28;20323;-68
2023/11/23 08:34:44;;;;;;;16.80;5.97;;;;;;;;;;5040017;28;20199;-70
2023/11/23 08:37:09;;;;;;;18.13;6.60;;;;;;;;;;5013905;28;20210;-69
2023/11/23 08:39:35;;;;;;;11.13;5.75;;;;;;;;;;5029078;28;20379;-69
2023/11/23 08:42:01;;;;;;;17.40;6.50;;;;;;;;;;5028362;28;20190;-69
2023/11/23 08:44:26;;;;;;;12.35;5.75;;;;;;;;;;5028702;28;20174;-69
2023/11/23 08:46:51;;;;;;;18.05;5.60;;;;;;;;;;5029590;28;20186;-69
2023/11/23 08:49:17;;;;;;;15.38;5.78;;;;;;;;;;5027935;28;20270;-69
2023/11/23 08:51:42;;;;;;;14.30;5.88;;;;;;;;;;5044233;28;20194;-69
2023/11/23 08:54:08;;;;;;;12.38;5.20;;;;;;;;;;5029945;28;20202;-69
2023/11/23 08:56:35;;;;;;;15.38;6.15;;;;;;;;;;5029696;28;20194;-69
2023/11/23 08:59:01;;;;;;;12.00;5.40;;;;;;;;;;5024616;28;20221;-70
2023/11/23 09:01:27;;;;;;;13.82;5.55;;;;;;;;;;5029790;28;20217;-70
2023/11/23 09:03:54;;;;;;;15.20;5.47;;;;;;;;;;5034889;28;20252;-69
2023/11/23 09:06:19;;;;;;;16.33;6.15;;;;;;;;;;5022065;28;20343;-69
2023/11/23 09:08:44;;;;;;;17.45;6.13;;;;;;;;;;5036854;28;20272;-69
2023/11/23 09:11:11;;;;;;;10.48;5.60;;;;;;;;;;5031829;28;20288;-69
2023/11/23 09:13:36;;;;;;;14.77;5.70;;;;;;;;;;5040473;28;20188;-69
2023/11/23 09:16:02;;;;;;;19.50;6.93;;;;;;;;;;5036830;28;20191;-68
2023/11/23 09:18:28;;;;;;;14.10;5.50;;;;;;;;;;5021507;28;20257;-69
2023/11/23 09:20:54;;;;;;;12.63;5.78;;;;;;;;;;5026952;28;20214;-69
2023/11/23 09:23:20;;;;;;;14.30;6.15;;;;;;;;;;5032552;28;20228;-69
2023/11/23 09:25:48;;;;;;;13.65;5.22;;;;;;;;;;5032099;28;20606;-69
2023/11/23 09:28:15;;;;;;;13.02;5.53;;;;;;;;;;5029864;28;20193;-69
2023/11/23 09:30:41;;;;;;;19.90;5.10;;;;;;;;;;5030260;28;20196;-68
2023/11/23 09:33:09;;;;;;;15.90;4.93;;;;;;;;;;5031583;28;20194;-68
2023/11/23 09:35:38;;;;;;;9.75;4.32;;;;;;;;;;5032189;28;20189;-69
2023/11/23 09:38:06;;;;;;;14.05;4.35;;;;;;;;;;5030372;28;20625;-69
2023/11/23 09:40:32;;;;;;;10.32;4.30;;;;;;;;;;5026679;28;20203;-68
2023/11/23 09:42:58;;;;;;;8.52;4.65;;;;;;;;;;5032336;28;20556;-67
2023/11/23 09:45:24;;;;;;;12.95;4.38;;;;;;;;;;5029199;28;20597;-69
2023/11/23 09:47:51;;;;;;;12.80;3.95;;;;;;;;;;5019735;28;20264;-68
2023/11/23 09:50:20;;;;;;;11.82;4.38;;;;;;;;;;5030055;28;20228;-68
2023/11/23 09:52:46;;;;;;;15.38;4.47;;;;;;;;;;5035314;28;20186;-69
2023/11/23 09:55:16;;;;;;;16.77;4.80;;;;;;;;;;5026281;28;20186;-68
2023/11/23 09:57:47;;;;;;;12.85;5.05;;;;;;;;;;5030381;28;20202;-69
2023/11/23 10:00:14;;;;;;;13.63;4.70;;;;;;;;;;5031258;28;20541;-69
2023/11/23 10:02:42;;;;;;;12.57;4.38;;;;;;;;;;5035916;28;20226;-70
2023/11/23 10:05:10;;;;;;;14.20;3.88;;;;;;;;;;5024932;28;20209;-68
2023/11/23 10:07:36;;;;;;;15.00;4.25;;;;;;;;;;5038580;28;20306;-68
2023/11/23 10:10:05;;;;;;;11.43;4.35;;;;;;;;;;5034882;28;20660;-68
2023/11/23 10:12:31;;;;;;;13.25;4.40;;;;;;;;;;5033313;28;20274;-69
2023/11/23 10:14:59;;;;;;;11.80;3.67;;;;;;;;;;5022277;28;20192;-69
2023/11/23 10:17:24;;;;;;;11.13;3.60;;;;;;;;;;5029934;28;20693;-69
2023/11/23 10:19:49;;;;;;;15.10;3.85;;;;;;;;;;5018253;28;20330;-68
2023/11/23 10:22:15;;;;;;;10.05;3.83;;;;;;;;;;5026609;28;20553;-69
2023/11/23 10:24:48;;;;;;;9.52;3.60;;;;;;;;;;5022276;28;20206;-69
2023/11/23 10:27:16;;;;;;;14.38;4.43;;;;;;;;;;5033730;28;20193;-69
2023/11/23 10:29:41;;;;;;;15.43;4.18;;;;;;;;;;5020484;28;20269;-68
2023/11/23 10:32:09;;;;;;;13.75;3.58;;;;;;;;;;5028592;28;20598;-69
2023/11/23 10:34:40;;;;;;;15.48;4.00;;;;;;;;;;5037466;28;20660;-69
2023/11/23 10:37:06;;;;;;;12.20;3.97;;;;;;;;;;5029302;28;20598;-69
2023/11/23 10:39:33;;;;;;;12.38;3.83;;;;;;;;;;5037057;28;20629;-70
2023/11/23 10:42:03;;;;;;;15.02;3.90;;;;;;;;;;5026601;28;20186;-69
2023/11/23 10:44:29;;;;;;;8.35;4.00;;;;;;;;;;5021426;28;20259;-69
2023/11/23 10:47:03;;;;;;;10.55;3.97;;;;;;;;;;5029494;28;20496;-69
2023/11/23 10:49:32;;;;;;;14.40;4.13;;;;;;;;;;5030890;28;20309;-68
2023/11/23 10:51:59;;;;;;;14.90;4.25;;;;;;;;;;5028733;28;20200;-69
2023/11/23 10:54:24;;;;;;;9.77;3.75;;;;;;;;;;5022917;28;20250;-69
2023/11/23 10:56:51;;;;;;;13.07;3.70;;;;;;;;;;5019326;28;20762;-68
2023/11/23 10:59:20;;;;;;;11.32;3.97;;;;;;;;;;5025583;28;20222;-69
2023/11/23 11:02:07;;;;;;;12.15;3.65;;;;;;;;;;5042350;28;20268;-68
2023/11/23 11:04:32;;;;;;;13.15;3.97;;;;;;;;;;4997239;28;20190;-68
2023/11/23 11:06:58;;;;;;;15.20;3.05;;;;;;;;;;5001278;28;20721;-69
2023/11/23 11:09:26;;;;;;;12.68;3.58;;;;;;;;;;5001272;28;20256;-69
2023/11/23 11:11:54;;;;;;;12.95;3.75;;;;;;;;;;5016723;28;20242;-67
2023/11/23 11:14:39;;;;;;;13.07;2.97;;;;;;;;;;5007330;28;20662;-68
2023/11/23 11:17:06;;;;;;;10.05;3.50;;;;;;;;;;5020666;28;20206;-68
2023/11/23 11:19:48;;;;;;;9.50;3.08;;;;;;;;;;5006734;28;20749;-68
2023/11/23 11:22:13;;;;;;;13.48;2.95;;;;;;;;;;5002007;28;20216;-68
2023/11/23 11:24:41;;;;;;;11.32;3.00;;;;;;;;;;5002538;28;20689;-68
2023/11/23 11:27:11;;;;;;;8.88;3.10;;;;;;;;;;5009997;28;20273;-69
2023/11/23 11:29:36;;;;;;;10.18;2.92;;;;;;;;;;5014563;28;20283;-69
2023/11/23 11:32:10;;;;;;;10.15;3.00;;;;;;;;;;5013629;28;20260;-68
2023/11/23 11:34:38;;;;;;;8.02;2.58;;;;;;;;;;5011613;28;20575;-68
2023/11/23 11:37:05;;;;;;;7.18;2.30;;;;;;;;;;5032807;28;20205;-68
2023/11/23 11:39:32;;;;;;;11.75;2.83;;;;;;;;;;5034553;28;20198;-68
2023/11/23 11:41:59;;;;;;;7.72;2.50;;;;;;;;;;5028938;28;20496;-68
2023/11/23 11:44:25;;;;;;;13.15;3.13;;;;;;;;;;5032021;28;20206;-68
2023/11/23 11:46:50;;;;;;;8.73;2.60;;;;;;;;;;5033674;28;20709;-68
2023/11/23 11:49:16;;;;;;;6.70;2.30;;;;;;;;;;5031183;28;20221;-69
2023/11/23 11:51:42;;;;;;;10.20;2.42;;;;;;;;;;5025104;28;20262;-68
2023/11/23 11:54:08;;;;;;;7.05;2.47;;;;;;;;;;5021237;28;20267;-69
2023/11/23 11:56:34;;;;;;;11.52;2.58;;;;;;;;;;5019305;28;20193;-68
2023/11/23 11:59:03;;;;;;;9.88;2.30;;;;;;;;;;5019862;28;20608;-68
2023/11/23 12:01:28;;;;;;;10.80;2.60;;;;;;;;;;5017170;28;20275;-68
2023/11/23 12:03:54;;;;;;;4.90;1.83;;;;;;;;;;5022592;28;20248;-68
2023/11/23 12:06:19;;;;;;;6.32;1.90;;;;;;;;;;5026128;28;20197;-68
2023/11/23 12:08:45;;;;;;;12.20;2.33;;;;;;;;;;5011930;28;20179;-69
2023/11/23 12:11:23;;;;;;;11.93;2.15;;;;;;;;;;5031739;28;20565;-68
2023/11/23 12:13:53;;;;;;;8.13;2.03;;;;;;;;;;5033969;28;20505;-68
2023/11/23 12:16:18;;;;;;;11.93;2.33;;;;;;;;;;5036577;28;20306;-68
2023/11/23 12:18:44;;;;;;;8.55;2.05;;;;;;;;;;5026849;28;20689;-68
2023/11/23 12:21:13;;;;;;;5.93;1.73;;;;;;;;;;5024864;28;20200;-68
2023/11/23 12:23:42;;;;;;;10.85;1.80;;;;;;;;;;5022886;28;20649;-68
2023/11/23 12:26:17;;;;;;;12.77;2.33;;;;;;;;;;5027243;28;20206;-68
2023/11/23 12:28:46;;;;;;;14.32;3.05;;;;;;;;;;5023491;28;20568;-69
2023/11/23 12:31:12;;;;;;;9.27;1.90;;;;;;;;;;5036138;28;20217;-68
2023/11/23 12:33:38;;;;;;;9.38;2.30;;;;;;;;;;5038306;28;20213;-69
2023/11/23 12:36:04;;;;;;;13.45;1.77;;;;;;;;;;5027659;28;20232;-69
2023/11/23 12:38:29;;;;;;;7.25;1.58;;;;;;;;;;5034605;28;20280;-69
2023/11/23 12:40:55;;;;;;;7.45;1.60;;;;;;;;;;5028870;28;20190;-68
2023/11/23 12:43:22;;;;;;;13.10;2.30;;;;;;;;;;5023961;28;20186;-69
2023/11/23 12:45:48;;;;;;;11.18;1.65;;;;;;;;;;5022475;28;20182;-69
2023/11/23 12:48:13;;;;;;;10.75;1.27;;;;;;;;;;5034847;28;20186;-69
2023/11/23 12:50:39;;;;;;;9.65;1.90;;;;;;;;;;5027059;28;20186;-69
2023/11/23 12:53:07;;;;;;;11.48;1.73;;;;;;;;;;5030795;28;20281;-69
2023/11/23 12:55:33;;;;;;;7.45;1.35;;;;;;;;;;5017858;28;20248;-69
2023/11/23 12:57:58;;;;;;;10.57;1.52;;;;;;;;;;5029526;28;20214;-69
2023/11/23 13:00:25;;;;;;;8.30;1.80;;;;;;;;;;5041725;28;20182;-69
2023/11/23 13:02:51;;;;;;;16.98;2.42;;;;;;;;;;5044863;28;20178;-69
2023/11/23 13:05:17;;;;;;;10.18;1.50;;;;;;;;;;5029537;28;20276;-68
2023/11/23 13:07:44;;;;;;;9.82;1.90;;;;;;;;;;5031510;28;20186;-69
2023/11/23 13:10:10;;;;;;;10.45;1.35;;;;;;;;;;5031522;28;20684;-69
2023/11/23 13:12:36;;;;;;;11.05;1.40;;;;;;;;;;5042609;28;20185;-69
2023/11/23 13:15:02;;;;;;;6.85;1.55;;;;;;;;;;5020548;28;20210;-69
2023/11/23 13:17:27;;;;;;;8.30;1.98;;;;;;;;;;5036834;28;20198;-68
2023/11/23 13:19:53;;;;;;;7.13;1.73;;;;;;;;;;5031001;28;20277;-68
2023/11/23 13:22:18;;;;;;;7.40;1.73;;;;;;;;;;5031501;28;20190;-69
2023/11/23 13:24:45;;;;;;;7.70;1.80;;;;;;;;;;5033117;28;20231;-68
2023/11/23 13:27:13;;;;;;;7.40;1.40;;;;;;;;;;5031103;28;20181;-69
2023/11/23 13:29:39;;;;;;;9.15;1.63;;;;;;;;;;5031280;28;20201;-68
2023/11/23 13:32:05;;;;;;;8.02;1.50;;;;;;;;;;5038992;28;20539;-70
2023/11/23 13:34:34;;;;;;;9.68;1.33;;;;;;;;;;5021124;28;20925;-68
2023/11/23 13:37:00;;;;;;;6.75;1.33;;;;;;;;;;5031767;28;20293;-69
2023/11/23 13:39:31;;;;;;;9.82;1.95;;;;;;;;;;5031554;28;20190;-69
2023/11/23 13:41:56;;;;;;;9.40;1.67;;;;;;;;;;5045823;28;20185;-69
2023/11/23 13:44:22;;;;;;;6.45;1.20;;;;;;;;;;5025959;28;20194;-68
2023/11/23 13:46:47;;;;;;;9.65;1.42;;;;;;;;;;5034013;28;20201;-69
2023/11/23 13:49:13;;;;;;;8.82;1.80;;;;;;;;;;5041199;28;20678;-68
2023/11/23 13:51:39;;;;;;;7.40;2.05;;;;;;;;;;5034787;28;20272;-68
2023/11/23 13:54:05;;;;;;;10.40;1.58;;;;;;;;;;5036756;28;20317;-69
2023/11/23 13:56:30;;;;;;;8.68;1.80;;;;;;;;;;5029381;28;20190;-68
2023/11/23 13:58:56;;;;;;;10.95;1.95;;;;;;;;;;5030055;28;20402;-68
2023/11/23 14:01:21;;;;;;;9.23;1.60;;;;;;;;;;4338337;28;10000694;-68
2023/11/23 14:03:47;;;;;;;9.73;1.42;;;;;;;;;;5028890;28;20498;-67
2023/11/23 14:06:13;;;;;;;8.60;1.65;;;;;;;;;;5019396;28;20194;-68
2023/11/23 14:08:39;;;;;;;10.25;2.25;;;;;;;;;;5014789;28;20191;-71
2023/11/23 14:11:05;;;;;;;9.27;1.92;;;;;;;;;;5021409;28;20232;-69
2023/11/23 14:13:31;;;;;;;11.27;1.92;;;;;;;;;;5040761;28;20186;-68
2023/11/23 14:15:57;;;;;;;8.05;1.85;;;;;;;;;;5026839;28;20225;-67
2023/11/23 14:18:22;;;;;;;7.32;1.75;;;;;;;;;;5010698;28;20711;-69
2023/11/23 14:20:49;;;;;;;6.00;1.58;;;;;;;;;;5015652;28;20700;-68